sensor_id;sensor_type;location;lat;lon;timestamp;temperature;humidity
24802;DHT22;12898;50.520;12.152;2023-11-21T00:00:20;6.70;99.90
24802;DHT22;12898;50.520;12.152;2023-11-21T00:02:46;6.70;99.90
24802;DHT22;12898;50.520;12.152;2023-11-21T00:05:13;6.80;99.90
24802;DHT22;12898;50.520;12.152;2023-11-21T00:07:40;6.80;99.90
24802;DHT22;12898;50.520;12.152;2023-11-21T00:10:07;6.70;99.90
24802;DHT22;12898;50.520;12.152;2023-11-21T00:12:34;6.70;99.90
24802;DHT22;12898;50.520;12.152;2023-11-21T00:15:01;6.80;99.90
24802;DHT22;12898;50.520;12.152;2023-11-21T00:17:27;6.80;99.90
24802;DHT22;12898;50.520;12.152;2023-11-21T00:19:53;6.80;99.90
24802;DHT22;12898;50.520;12.152;2023-11-21T00:22:19;6.80;99.90
24802;DHT22;12898;50.520;12.152;2023-11-21T00:24:45;6.80;99.90
24802;DHT22;12898;50.520;12.152;2023-11-21T00:27:13;6.70;99.90
24802;DHT22;12898;50.520;12.152;2023-11-21T00:29:40;6.70;99.90
24802;DHT22;12898;50.520;12.152;2023-11-21T00:32:06;6.70;99.90
24802;DHT22;12898;50.520;12.152;2023-11-21T00:34:32;6.70;99.90
24802;DHT22;12898;50.520;12.152;2023-11-21T00:36:59;6.70;99.90
24802;DHT22;12898;50.520;12.152;2023-11-21T00:39:24;6.70;99.90
24802;DHT22;12898;50.520;12.152;2023-11-21T00:41:52;6.70;99.90
24802;DHT22;12898;50.520;12.152;2023-11-21T00:44:18;6.70;99.90
24802;DHT22;12898;50.520;12.152;2023-11-21T00:46:44;6.70;99.90
24802;DHT22;12898;50.520;12.152;2023-11-21T00:49:09;6.70;99.90
24802;DHT22;12898;50.520;12.152;2023-11-21T00:51:35;6.70;99.90
24802;DHT22;12898;50.520;12.152;2023-11-21T00:54:01;6.80;99.90
24802;DHT22;12898;50.520;12.152;2023-11-21T00:56:27;6.70;99.90
24802;DHT22;12898;50.520;12.152;2023-11-21T00:58:53;6.80;99.90
24802;DHT22;12898;50.520;12.152;2023-11-21T01:01:20;6.80;99.90
24802;DHT22;12898;50.520;12.152;2023-11-21T01:03:47;6.70;99.90
24802;DHT22;12898;50.520;12.152;2023-11-21T01:06:14;6.80;99.90
24802;DHT22;12898;50.520;12.152;2023-11-21T01:08:40;6.70;99.90
24802;DHT22;12898;50.520;12.152;2023-11-21T01:11:06;6.80;99.90
24802;DHT22;12898;50.520;12.152;2023-11-21T01:13:40;6.80;99.90
24802;DHT22;12898;50.520;12.152;2023-11-21T01:16:07;6.80;99.90
24802;DHT22;12898;50.520;12.152;2023-11-21T01:18:33;6.80;99.90
24802;DHT22;12898;50.520;12.152;2023-11-21T01:21:00;6.80;99.90
24802;DHT22;12898;50.520;12.152;2023-11-21T01:23:26;6.80;99.90
24802;DHT22;12898;50.520;12.152;2023-11-21T01:25:53;6.80;99.90
24802;DHT22;12898;50.520;12.152;2023-11-21T01:28:20;6.80;99.90
24802;DHT22;12898;50.520;12.152;2023-11-21T01:30:46;6.80;99.90
24802;DHT22;12898;50.520;12.152;2023-11-21T01:33:11;6.80;99.90
24802;DHT22;12898;50.520;12.152;2023-11-21T01:35:37;6.70;99.90
24802;DHT22;12898;50.520;12.152;2023-11-21T01:38:03;6.70;99.90
24802;DHT22;12898;50.520;12.152;2023-11-21T01:40:33;6.70;99.90
24802;DHT22;12898;50.520;12.152;2023-11-21T01:43:00;6.70;99.90
24802;DHT22;12898;50.520;12.152;2023-11-21T01:45:27;6.70;99.90
24802;DHT22;12898;50.520;12.152;2023-11-21T01:47:55;6.70;99.90
24802;DHT22;12898;50.520;12.152;2023-11-21T01:50:21;6.70;99.90
24802;DHT22;12898;50.520;12.152;2023-11-21T01:52:48;6.70;99.90
24802;DHT22;12898;50.520;12.152;2023-11-21T01:55:16;6.70;99.90
24802;DHT22;12898;50.520;12.152;2023-11-21T01:57:46;6.70;99.90
24802;DHT22;12898;50.520;12.152;2023-11-21T02:00:13;6.70;99.90
24802;DHT22;12898;50.520;12.152;2023-11-21T02:05:18;6.60;99.90
24802;DHT22;12898;50.520;12.152;2023-11-21T02:07:45;6.60;99.90
24802;DHT22;12898;50.520;12.152;2023-11-21T02:10:15;6.60;99.90
24802;DHT22;12898;50.520;12.152;2023-11-21T02:12:42;6.60;99.90
24802;DHT22;12898;50.520;12.152;2023-11-21T02:15:13;6.60;99.90
24802;DHT22;12898;50.520;12.152;2023-11-21T02:17:52;6.60;99.90
24802;DHT22;12898;50.520;12.152;2023-11-21T02:20:19;6.60;99.90
24802;DHT22;12898;50.520;12.152;2023-11-21T02:22:52;6.50;99.90
24802;DHT22;12898;50.520;12.152;2023-11-21T02:25:31;6.50;99.90
24802;DHT22;12898;50.520;12.152;2023-11-21T02:27:59;6.50;99.90
24802;DHT22;12898;50.520;12.152;2023-11-21T02:30:27;6.50;99.90
24802;DHT22;12898;50.520;12.152;2023-11-21T02:32:58;6.40;99.90
24802;DHT22;12898;50.520;12.152;2023-11-21T02:35:25;6.40;99.90
24802;DHT22;12898;50.520;12.152;2023-11-21T02:37:54;6.40;99.90
24802;DHT22;12898;50.520;12.152;2023-11-21T02:40:20;6.40;99.90
24802;DHT22;12898;50.520;12.152;2023-11-21T02:42:49;6.40;99.90
24802;DHT22;12898;50.520;12.152;2023-11-21T02:45:19;6.40;99.90
24802;DHT22;12898;50.520;12.152;2023-11-21T02:47:49;6.40;99.90
24802;DHT22;12898;50.520;12.152;2023-11-21T02:50:15;6.40;99.90
24802;DHT22;12898;50.520;12.152;2023-11-21T02:52:41;6.30;99.90
24802;DHT22;12898;50.520;12.152;2023-11-21T02:55:07;6.30;99.90
24802;DHT22;12898;50.520;12.152;2023-11-21T02:57:33;6.30;99.90
24802;DHT22;12898;50.520;12.152;2023-11-21T02:59:59;6.30;99.90
24802;DHT22;12898;50.520;12.152;2023-11-21T03:02:28;6.30;99.90
24802;DHT22;12898;50.520;12.152;2023-11-21T03:04:54;6.20;99.90
24802;DHT22;12898;50.520;12.152;2023-11-21T03:07:19;6.20;99.90
24802;DHT22;12898;50.520;12.152;2023-11-21T03:09:45;6.20;99.90
24802;DHT22;12898;50.520;12.152;2023-11-21T03:12:11;6.20;99.90
24802;DHT22;12898;50.520;12.152;2023-11-21T03:14:38;6.20;99.90
24802;DHT22;12898;50.520;12.152;2023-11-21T03:17:05;6.20;99.90
24802;DHT22;12898;50.520;12.152;2023-11-21T03:19:31;6.20;99.90
24802;DHT22;12898;50.520;12.152;2023-11-21T03:21:56;6.20;99.90
24802;DHT22;12898;50.520;12.152;2023-11-21T03:24:22;6.20;99.90
24802;DHT22;12898;50.520;12.152;2023-11-21T03:26:48;6.20;99.90
24802;DHT22;12898;50.520;12.152;2023-11-21T03:29:15;6.20;99.90
24802;DHT22;12898;50.520;12.152;2023-11-21T03:31:41;6.10;99.90
24802;DHT22;12898;50.520;12.152;2023-11-21T03:34:09;6.20;99.90
24802;DHT22;12898;50.520;12.152;2023-11-21T03:36:37;6.10;99.90
24802;DHT22;12898;50.520;12.152;2023-11-21T03:39:02;6.10;99.90
24802;DHT22;12898;50.520;12.152;2023-11-21T03:41:28;6.10;99.90
24802;DHT22;12898;50.520;12.152;2023-11-21T03:43:54;6.10;99.90
24802;DHT22;12898;50.520;12.152;2023-11-21T03:46:20;6.10;99.90
24802;DHT22;12898;50.520;12.152;2023-11-21T03:48:45;6.10;99.90
24802;DHT22;12898;50.520;12.152;2023-11-21T03:51:11;6.10;99.90
24802;DHT22;12898;50.520;12.152;2023-11-21T03:53:37;6.10;99.90
24802;DHT22;12898;50.520;12.152;2023-11-21T03:56:03;6.10;99.90
24802;DHT22;12898;50.520;12.152;2023-11-21T03:58:29;6.10;99.90
24802;DHT22;12898;50.520;12.152;2023-11-21T04:00:55;6.10;99.90
24802;DHT22;12898;50.520;12.152;2023-11-21T04:03:20;6.10;99.90
24802;DHT22;12898;50.520;12.152;2023-11-21T04:05:46;6.00;99.90
24802;DHT22;12898;50.520;12.152;2023-11-21T04:08:12;6.00;99.90
24802;DHT22;12898;50.520;12.152;2023-11-21T04:10:38;6.00;99.90
24802;DHT22;12898;50.520;12.152;2023-11-21T04:13:05;6.00;99.90
24802;DHT22;12898;50.520;12.152;2023-11-21T04:15:32;6.00;99.90
24802;DHT22;12898;50.520;12.152;2023-11-21T04:17:58;6.00;99.90
24802;DHT22;12898;50.520;12.152;2023-11-21T04:20:24;6.00;99.90
24802;DHT22;12898;50.520;12.152;2023-11-21T04:22:50;6.00;99.90
24802;DHT22;12898;50.520;12.152;2023-11-21T04:25:16;6.00;99.90
24802;DHT22;12898;50.520;12.152;2023-11-21T04:27:42;6.00;99.90
24802;DHT22;12898;50.520;12.152;2023-11-21T04:30:10;6.00;99.90
24802;DHT22;12898;50.520;12.152;2023-11-21T04:32:39;6.00;99.90
24802;DHT22;12898;50.520;12.152;2023-11-21T04:35:05;5.90;99.90
24802;DHT22;12898;50.520;12.152;2023-11-21T04:37:31;5.90;99.90
24802;DHT22;12898;50.520;12.152;2023-11-21T04:39:57;5.90;99.90
24802;DHT22;12898;50.520;12.152;2023-11-21T04:42:23;5.90;99.90
24802;DHT22;12898;50.520;12.152;2023-11-21T04:44:49;5.90;99.90
24802;DHT22;12898;50.520;12.152;2023-11-21T04:47:15;5.90;99.90
24802;DHT22;12898;50.520;12.152;2023-11-21T04:49:43;5.90;99.90
24802;DHT22;12898;50.520;12.152;2023-11-21T04:52:12;5.90;99.90
24802;DHT22;12898;50.520;12.152;2023-11-21T04:54:38;5.90;99.90
24802;DHT22;12898;50.520;12.152;2023-11-21T04:57:05;5.90;99.90
24802;DHT22;12898;50.520;12.152;2023-11-21T04:59:33;5.80;99.90
24802;DHT22;12898;50.520;12.152;2023-11-21T05:01:59;5.80;99.90
24802;DHT22;12898;50.520;12.152;2023-11-21T05:04:28;5.80;99.90
24802;DHT22;12898;50.520;12.152;2023-11-21T05:06:54;5.80;99.90
24802;DHT22;12898;50.520;12.152;2023-11-21T05:09:20;5.80;99.90
24802;DHT22;12898;50.520;12.152;2023-11-21T05:11:47;5.80;99.90
24802;DHT22;12898;50.520;12.152;2023-11-21T05:14:13;5.80;99.90
24802;DHT22;12898;50.520;12.152;2023-11-21T05:16:39;5.80;99.90
24802;DHT22;12898;50.520;12.152;2023-11-21T05:19:05;5.80;99.90
24802;DHT22;12898;50.520;12.152;2023-11-21T05:21:31;5.80;99.90
24802;DHT22;12898;50.520;12.152;2023-11-21T05:23:58;5.80;99.90
24802;DHT22;12898;50.520;12.152;2023-11-21T05:26:23;5.80;99.90
24802;DHT22;12898;50.520;12.152;2023-11-21T05:28:49;5.80;99.90
24802;DHT22;12898;50.520;12.152;2023-11-21T05:31:15;5.80;99.90
24802;DHT22;12898;50.520;12.152;2023-11-21T05:33:41;5.80;99.90
24802;DHT22;12898;50.520;12.152;2023-11-21T05:36:07;5.80;99.90
24802;DHT22;12898;50.520;12.152;2023-11-21T05:38:34;5.90;99.90
24802;DHT22;12898;50.520;12.152;2023-11-21T05:41:01;5.90;99.90
24802;DHT22;12898;50.520;12.152;2023-11-21T05:43:27;5.90;99.90
24802;DHT22;12898;50.520;12.152;2023-11-21T05:45:55;5.90;99.90
24802;DHT22;12898;50.520;12.152;2023-11-21T05:48:20;5.90;99.90
24802;DHT22;12898;50.520;12.152;2023-11-21T05:50:46;5.90;99.90
24802;DHT22;12898;50.520;12.152;2023-11-21T05:53:13;5.90;99.90
24802;DHT22;12898;50.520;12.152;2023-11-21T05:55:41;5.90;99.90
24802;DHT22;12898;50.520;12.152;2023-11-21T05:58:07;5.90;99.90
24802;DHT22;12898;50.520;12.152;2023-11-21T06:00:33;5.90;99.90
24802;DHT22;12898;50.520;12.152;2023-11-21T06:02:59;5.90;99.90
24802;DHT22;12898;50.520;12.152;2023-11-21T06:05:26;5.90;99.90
24802;DHT22;12898;50.520;12.152;2023-11-21T06:07:53;5.90;99.90
24802;DHT22;12898;50.520;12.152;2023-11-21T06:10:23;5.90;99.90
24802;DHT22;12898;50.520;12.152;2023-11-21T06:12:49;5.90;99.90
24802;DHT22;12898;50.520;12.152;2023-11-21T06:15:15;5.90;99.90
24802;DHT22;12898;50.520;12.152;2023-11-21T06:17:42;5.90;99.90
24802;DHT22;12898;50.520;12.152;2023-11-21T06:20:10;5.90;99.90
24802;DHT22;12898;50.520;12.152;2023-11-21T06:22:43;5.90;99.90
24802;DHT22;12898;50.520;12.152;2023-11-21T06:25:11;5.90;99.90
24802;DHT22;12898;50.520;12.152;2023-11-21T06:27:42;5.80;99.90
24802;DHT22;12898;50.520;12.152;2023-11-21T06:30:10;5.80;99.90
24802;DHT22;12898;50.520;12.152;2023-11-21T06:32:38;5.70;99.90
24802;DHT22;12898;50.520;12.152;2023-11-21T06:35:05;5.60;99.90
24802;DHT22;12898;50.520;12.152;2023-11-21T06:37:32;5.50;99.90
24802;DHT22;12898;50.520;12.152;2023-11-21T06:39:59;5.40;99.90
24802;DHT22;12898;50.520;12.152;2023-11-21T06:42:26;5.30;99.90
24802;DHT22;12898;50.520;12.152;2023-11-21T06:44:52;5.30;99.90
24802;DHT22;12898;50.520;12.152;2023-11-21T06:47:19;5.30;99.90
24802;DHT22;12898;50.520;12.152;2023-11-21T06:49:46;5.30;99.90
24802;DHT22;12898;50.520;12.152;2023-11-21T06:52:15;5.30;99.90
24802;DHT22;12898;50.520;12.152;2023-11-21T06:54:40;5.30;99.90
24802;DHT22;12898;50.520;12.152;2023-11-21T06:57:06;5.30;99.90
24802;DHT22;12898;50.520;12.152;2023-11-21T06:59:33;5.30;99.90
24802;DHT22;12898;50.520;12.152;2023-11-21T07:01:59;5.20;99.90
24802;DHT22;12898;50.520;12.152;2023-11-21T07:04:24;5.10;99.90
24802;DHT22;12898;50.520;12.152;2023-11-21T07:06:56;4.90;99.90
24802;DHT22;12898;50.520;12.152;2023-11-21T07:09:21;4.80;99.90
24802;DHT22;12898;50.520;12.152;2023-11-21T07:11:50;4.70;99.90
24802;DHT22;12898;50.520;12.152;2023-11-21T07:14:16;4.60;99.90
24802;DHT22;12898;50.520;12.152;2023-11-21T07:16:42;4.60;99.90
24802;DHT22;12898;50.520;12.152;2023-11-21T07:19:08;4.60;99.90
24802;DHT22;12898;50.520;12.152;2023-11-21T07:21:35;4.60;99.90
24802;DHT22;12898;50.520;12.152;2023-11-21T07:24:02;4.70;99.90
24802;DHT22;12898;50.520;12.152;2023-11-21T07:26:29;4.80;99.90
24802;DHT22;12898;50.520;12.152;2023-11-21T07:28:55;4.90;99.90
24802;DHT22;12898;50.520;12.152;2023-11-21T07:31:24;5.10;99.90
24802;DHT22;12898;50.520;12.152;2023-11-21T07:33:50;5.20;99.90
24802;DHT22;12898;50.520;12.152;2023-11-21T07:36:17;5.40;99.90
24802;DHT22;12898;50.520;12.152;2023-11-21T07:38:46;5.60;99.90
24802;DHT22;12898;50.520;12.152;2023-11-21T07:41:12;5.80;99.90
24802;DHT22;12898;50.520;12.152;2023-11-21T07:43:41;6.00;99.90
24802;DHT22;12898;50.520;12.152;2023-11-21T07:46:07;6.10;99.90
24802;DHT22;12898;50.520;12.152;2023-11-21T07:48:34;6.40;99.90
24802;DHT22;12898;50.520;12.152;2023-11-21T07:51:01;6.50;99.90
24802;DHT22;12898;50.520;12.152;2023-11-21T07:53:29;6.70;99.90
24802;DHT22;12898;50.520;12.152;2023-11-21T07:56:05;6.80;99.90
24802;DHT22;12898;50.520;12.152;2023-11-21T07:58:33;7.00;99.90
24802;DHT22;12898;50.520;12.152;2023-11-21T08:01:00;7.20;99.90
24802;DHT22;12898;50.520;12.152;2023-11-21T08:03:26;7.40;99.90
24802;DHT22;12898;50.520;12.152;2023-11-21T08:05:58;7.60;99.90
24802;DHT22;12898;50.520;12.152;2023-11-21T08:08:25;7.80;99.90
24802;DHT22;12898;50.520;12.152;2023-11-21T08:10:51;8.00;99.90
24802;DHT22;12898;50.520;12.152;2023-11-21T08:13:23;8.20;99.90
24802;DHT22;12898;50.520;12.152;2023-11-21T08:15:50;8.30;99.90
24802;DHT22;12898;50.520;12.152;2023-11-21T08:18:16;8.30;99.90
24802;DHT22;12898;50.520;12.152;2023-11-21T08:20:43;8.30;99.90
24802;DHT22;12898;50.520;12.152;2023-11-21T08:23:14;8.30;99.90
24802;DHT22;12898;50.520;12.152;2023-11-21T08:25:41;8.40;99.90
24802;DHT22;12898;50.520;12.152;2023-11-21T08:28:08;8.50;99.90
24802;DHT22;12898;50.520;12.152;2023-11-21T08:30:34;8.60;99.90
24802;DHT22;12898;50.520;12.152;2023-11-21T08:33:00;8.60;99.90
24802;DHT22;12898;50.520;12.152;2023-11-21T08:35:26;8.70;99.90
24802;DHT22;12898;50.520;12.152;2023-11-21T08:37:52;8.80;99.90
24802;DHT22;12898;50.520;12.152;2023-11-21T08:40:21;8.80;99.90
24802;DHT22;12898;50.520;12.152;2023-11-21T08:42:50;8.80;99.90
24802;DHT22;12898;50.520;12.152;2023-11-21T08:45:18;8.70;99.90
24802;DHT22;12898;50.520;12.152;2023-11-21T08:47:45;8.70;99.90
24802;DHT22;12898;50.520;12.152;2023-11-21T08:50:12;8.60;99.90
24802;DHT22;12898;50.520;12.152;2023-11-21T08:52:41;8.60;99.90
24802;DHT22;12898;50.520;12.152;2023-11-21T08:55:08;8.50;99.90
24802;DHT22;12898;50.520;12.152;2023-11-21T08:57:35;8.50;99.90
24802;DHT22;12898;50.520;12.152;2023-11-21T09:00:02;8.40;99.90
24802;DHT22;12898;50.520;12.152;2023-11-21T09:02:29;8.40;99.90
24802;DHT22;12898;50.520;12.152;2023-11-21T09:04:54;8.40;99.90
24802;DHT22;12898;50.520;12.152;2023-11-21T09:07:20;8.50;99.90
24802;DHT22;12898;50.520;12.152;2023-11-21T09:09:48;8.40;99.90
24802;DHT22;12898;50.520;12.152;2023-11-21T09:12:15;8.40;99.90
24802;DHT22;12898;50.520;12.152;2023-11-21T09:14:42;8.40;99.90
24802;DHT22;12898;50.520;12.152;2023-11-21T09:17:10;8.40;99.90
24802;DHT22;12898;50.520;12.152;2023-11-21T09:19:40;8.40;99.90
24802;DHT22;12898;50.520;12.152;2023-11-21T09:22:06;8.40;99.90
24802;DHT22;12898;50.520;12.152;2023-11-21T09:24:33;8.30;99.90
24802;DHT22;12898;50.520;12.152;2023-11-21T09:27:00;8.30;99.90
24802;DHT22;12898;50.520;12.152;2023-11-21T09:29:28;8.20;99.90
24802;DHT22;12898;50.520;12.152;2023-11-21T09:31:55;8.20;99.90
24802;DHT22;12898;50.520;12.152;2023-11-21T09:34:22;8.10;99.90
24802;DHT22;12898;50.520;12.152;2023-11-21T09:36:48;8.10;99.90
24802;DHT22;12898;50.520;12.152;2023-11-21T09:39:14;8.10;99.90
24802;DHT22;12898;50.520;12.152;2023-11-21T09:41:52;8.10;99.90
24802;DHT22;12898;50.520;12.152;2023-11-21T09:44:54;8.10;99.90
24802;DHT22;12898;50.520;12.152;2023-11-21T09:47:27;8.10;99.90
24802;DHT22;12898;50.520;12.152;2023-11-21T09:49:54;8.00;99.90
24802;DHT22;12898;50.520;12.152;2023-11-21T09:52:26;8.10;99.90
24802;DHT22;12898;50.520;12.152;2023-11-21T09:54:53;8.10;99.90
24802;DHT22;12898;50.520;12.152;2023-11-21T09:57:23;8.10;99.90
24802;DHT22;12898;50.520;12.152;2023-11-21T09:59:54;8.00;99.90
24802;DHT22;12898;50.520;12.152;2023-11-21T10:02:28;8.00;99.90
24802;DHT22;12898;50.520;12.152;2023-11-21T10:04:56;8.00;99.90
24802;DHT22;12898;50.520;12.152;2023-11-21T10:07:22;8.00;99.90
24802;DHT22;12898;50.520;12.152;2023-11-21T10:09:48;8.00;99.90
24802;DHT22;12898;50.520;12.152;2023-11-21T10:12:16;7.90;99.90
24802;DHT22;12898;50.520;12.152;2023-11-21T10:14:42;7.90;99.90
24802;DHT22;12898;50.520;12.152;2023-11-21T10:17:10;7.90;99.90
24802;DHT22;12898;50.520;12.152;2023-11-21T10:19:39;8.00;99.90
24802;DHT22;12898;50.520;12.152;2023-11-21T10:22:06;8.00;99.90
24802;DHT22;12898;50.520;12.152;2023-11-21T10:24:35;8.00;99.90
24802;DHT22;12898;50.520;12.152;2023-11-21T10:27:02;8.10;99.90
24802;DHT22;12898;50.520;12.152;2023-11-21T10:29:29;8.10;99.90
24802;DHT22;12898;50.520;12.152;2023-11-21T10:31:56;8.20;99.90
24802;DHT22;12898;50.520;12.152;2023-11-21T10:34:24;8.20;99.90
24802;DHT22;12898;50.520;12.152;2023-11-21T10:36:49;8.20;99.90
24802;DHT22;12898;50.520;12.152;2023-11-21T10:39:20;8.20;99.90
24802;DHT22;12898;50.520;12.152;2023-11-21T10:41:49;8.30;99.90
24802;DHT22;12898;50.520;12.152;2023-11-21T10:44:19;8.40;99.90
24802;DHT22;12898;50.520;12.152;2023-11-21T10:46:53;8.40;99.90
24802;DHT22;12898;50.520;12.152;2023-11-21T10:49:24;8.30;99.90
24802;DHT22;12898;50.520;12.152;2023-11-21T10:51:55;8.30;99.90
24802;DHT22;12898;50.520;12.152;2023-11-21T10:54:24;8.30;99.90
24802;DHT22;12898;50.520;12.152;2023-11-21T10:56:54;8.30;99.90
24802;DHT22;12898;50.520;12.152;2023-11-21T10:59:22;8.30;99.90
24802;DHT22;12898;50.520;12.152;2023-11-21T11:01:51;8.20;99.90
24802;DHT22;12898;50.520;12.152;2023-11-21T11:04:19;8.20;99.90
24802;DHT22;12898;50.520;12.152;2023-11-21T11:06:48;8.10;99.90
24802;DHT22;12898;50.520;12.152;2023-11-21T11:09:17;8.00;99.90
24802;DHT22;12898;50.520;12.152;2023-11-21T11:11:43;8.00;99.90
24802;DHT22;12898;50.520;12.152;2023-11-21T11:14:12;8.00;99.90
24802;DHT22;12898;50.520;12.152;2023-11-21T11:16:42;7.90;99.90
24802;DHT22;12898;50.520;12.152;2023-11-21T11:19:09;7.90;99.90
24802;DHT22;12898;50.520;12.152;2023-11-21T11:33:52;7.70;99.90
24802;DHT22;12898;50.520;12.152;2023-11-21T11:36:35;7.70;99.90
24802;DHT22;12898;50.520;12.152;2023-11-21T11:39:03;7.70;99.90
24802;DHT22;12898;50.520;12.152;2023-11-21T11:41:31;7.80;99.90
24802;DHT22;12898;50.520;12.152;2023-11-21T11:44:00;7.90;99.90
24802;DHT22;12898;50.520;12.152;2023-11-21T11:46:45;7.80;99.90
24802;DHT22;12898;50.520;12.152;2023-11-21T11:49:24;7.90;99.90
24802;DHT22;12898;50.520;12.152;2023-11-21T11:54:59;8.00;99.90
24802;DHT22;12898;50.520;12.152;2023-11-21T11:57:25;8.00;99.90
24802;DHT22;12898;50.520;12.152;2023-11-21T12:00:10;8.00;99.90
24802;DHT22;12898;50.520;12.152;2023-11-21T12:02:41;7.90;99.90
24802;DHT22;12898;50.520;12.152;2023-11-21T12:05:12;7.90;99.90
24802;DHT22;12898;50.520;12.152;2023-11-21T12:07:47;7.90;99.90
24802;DHT22;12898;50.520;12.152;2023-11-21T12:10:20;7.80;99.90
24802;DHT22;12898;50.520;12.152;2023-11-21T12:12:52;7.80;99.90
24802;DHT22;12898;50.520;12.152;2023-11-21T12:15:19;7.70;99.90
24802;DHT22;12898;50.520;12.152;2023-11-21T12:17:46;7.70;99.90
24802;DHT22;12898;50.520;12.152;2023-11-21T12:20:13;7.70;99.90
24802;DHT22;12898;50.520;12.152;2023-11-21T12:22:49;7.70;99.90
24802;DHT22;12898;50.520;12.152;2023-11-21T12:25:24;7.60;99.90
24802;DHT22;12898;50.520;12.152;2023-11-21T12:27:54;7.60;99.90
24802;DHT22;12898;50.520;12.152;2023-11-21T12:30:28;7.60;99.90
24802;DHT22;12898;50.520;12.152;2023-11-21T12:32:57;7.60;99.90
24802;DHT22;12898;50.520;12.152;2023-11-21T12:35:32;7.60;99.90
24802;DHT22;12898;50.520;12.152;2023-11-21T12:38:02;7.70;99.90
24802;DHT22;12898;50.520;12.152;2023-11-21T12:40:29;7.60;99.90
24802;DHT22;12898;50.520;12.152;2023-11-21T12:42:57;7.50;99.90
24802;DHT22;12898;50.520;12.152;2023-11-21T12:45:25;7.50;99.90
24802;DHT22;12898;50.520;12.152;2023-11-21T12:48:01;7.40;99.90
24802;DHT22;12898;50.520;12.152;2023-11-21T12:50:30;7.30;99.90
24802;DHT22;12898;50.520;12.152;2023-11-21T12:53:21;7.30;99.90
24802;DHT22;12898;50.520;12.152;2023-11-21T12:55:47;7.30;99.90
24802;DHT22;12898;50.520;12.152;2023-11-21T12:58:15;7.30;99.90
24802;DHT22;12898;50.520;12.152;2023-11-21T13:00:48;7.30;99.90
24802;DHT22;12898;50.520;12.152;2023-11-21T13:03:16;7.30;99.90
24802;DHT22;12898;50.520;12.152;2023-11-21T13:05:44;7.30;99.90
24802;DHT22;12898;50.520;12.152;2023-11-21T13:08:12;7.30;99.90
24802;DHT22;12898;50.520;12.152;2023-11-21T13:10:40;7.20;99.90
24802;DHT22;12898;50.520;12.152;2023-11-21T13:13:09;7.20;99.90
24802;DHT22;12898;50.520;12.152;2023-11-21T13:15:39;7.20;99.90
24802;DHT22;12898;50.520;12.152;2023-11-21T13:18:08;7.20;99.90
24802;DHT22;12898;50.520;12.152;2023-11-21T13:20:36;7.20;99.90
24802;DHT22;12898;50.520;12.152;2023-11-21T13:23:07;7.20;99.90
24802;DHT22;12898;50.520;12.152;2023-11-21T13:25:34;7.10;99.90
24802;DHT22;12898;50.520;12.152;2023-11-21T13:28:00;7.10;99.90
24802;DHT22;12898;50.520;12.152;2023-11-21T13:30:26;7.10;99.90
24802;DHT22;12898;50.520;12.152;2023-11-21T13:32:59;7.10;99.90
24802;DHT22;12898;50.520;12.152;2023-11-21T13:35:32;7.10;99.90
24802;DHT22;12898;50.520;12.152;2023-11-21T13:38:10;7.10;99.90
24802;DHT22;12898;50.520;12.152;2023-11-21T13:40:38;7.10;99.90
24802;DHT22;12898;50.520;12.152;2023-11-21T13:43:19;7.10;99.90
24802;DHT22;12898;50.520;12.152;2023-11-21T13:45:48;7.10;99.90
24802;DHT22;12898;50.520;12.152;2023-11-21T13:48:26;7.10;99.90
24802;DHT22;12898;50.520;12.152;2023-11-21T13:51:00;7.00;99.90
24802;DHT22;12898;50.520;12.152;2023-11-21T13:53:36;7.10;99.90
24802;DHT22;12898;50.520;12.152;2023-11-21T13:56:03;7.10;99.90
24802;DHT22;12898;50.520;12.152;2023-11-21T13:58:29;7.10;99.90
24802;DHT22;12898;50.520;12.152;2023-11-21T14:01:23;7.10;99.90
24802;DHT22;12898;50.520;12.152;2023-11-21T14:03:59;7.10;99.90
24802;DHT22;12898;50.520;12.152;2023-11-21T14:06:34;7.10;99.90
24802;DHT22;12898;50.520;12.152;2023-11-21T14:09:11;7.10;99.90
24802;DHT22;12898;50.520;12.152;2023-11-21T14:11:39;7.10;99.90
24802;DHT22;12898;50.520;12.152;2023-11-21T14:14:05;7.10;99.90
24802;DHT22;12898;50.520;12.152;2023-11-21T14:16:31;7.00;99.90
24802;DHT22;12898;50.520;12.152;2023-11-21T14:18:56;7.00;99.90
24802;DHT22;12898;50.520;12.152;2023-11-21T14:21:35;6.90;99.90
24802;DHT22;12898;50.520;12.152;2023-11-21T14:24:00;6.80;99.90
24802;DHT22;12898;50.520;12.152;2023-11-21T14:26:26;6.70;99.90
24802;DHT22;12898;50.520;12.152;2023-11-21T14:28:54;6.60;99.90
24802;DHT22;12898;50.520;12.152;2023-11-21T14:31:20;6.50;99.90
24802;DHT22;12898;50.520;12.152;2023-11-21T14:33:45;6.50;99.90
24802;DHT22;12898;50.520;12.152;2023-11-21T14:36:11;6.40;99.90
24802;DHT22;12898;50.520;12.152;2023-11-21T14:38:37;6.30;99.90
24802;DHT22;12898;50.520;12.152;2023-11-21T14:41:07;6.30;99.90
24802;DHT22;12898;50.520;12.152;2023-11-21T14:43:34;6.20;99.90
24802;DHT22;12898;50.520;12.152;2023-11-21T14:46:01;6.20;99.90
24802;DHT22;12898;50.520;12.152;2023-11-21T14:48:29;6.10;99.90
24802;DHT22;12898;50.520;12.152;2023-11-21T14:51:08;6.10;99.90
24802;DHT22;12898;50.520;12.152;2023-11-21T14:53:40;6.10;99.90
24802;DHT22;12898;50.520;12.152;2023-11-21T14:56:21;6.10;99.90
24802;DHT22;12898;50.520;12.152;2023-11-21T14:58:53;6.00;99.90
24802;DHT22;12898;50.520;12.152;2023-11-21T15:01:20;6.00;99.90
24802;DHT22;12898;50.520;12.152;2023-11-21T15:03:52;5.90;99.90
24802;DHT22;12898;50.520;12.152;2023-11-21T15:06:19;5.90;99.90
24802;DHT22;12898;50.520;12.152;2023-11-21T15:08:57;5.80;99.90
24802;DHT22;12898;50.520;12.152;2023-11-21T15:11:46;5.80;99.90
24802;DHT22;12898;50.520;12.152;2023-11-21T15:14:13;5.80;99.90
24802;DHT22;12898;50.520;12.152;2023-11-21T15:16:45;5.70;99.90
24802;DHT22;12898;50.520;12.152;2023-11-21T15:19:16;5.70;99.90
24802;DHT22;12898;50.520;12.152;2023-11-21T15:21:44;5.60;99.90
24802;DHT22;12898;50.520;12.152;2023-11-21T15:24:11;5.60;99.90
24802;DHT22;12898;50.520;12.152;2023-11-21T15:26:37;5.60;99.90
24802;DHT22;12898;50.520;12.152;2023-11-21T15:29:04;5.50;99.90
24802;DHT22;12898;50.520;12.152;2023-11-21T15:31:30;5.50;99.90
24802;DHT22;12898;50.520;12.152;2023-11-21T15:33:56;5.50;99.90
24802;DHT22;12898;50.520;12.152;2023-11-21T15:36:28;5.40;99.90
24802;DHT22;12898;50.520;12.152;2023-11-21T15:38:54;5.40;99.90
24802;DHT22;12898;50.520;12.152;2023-11-21T15:41:20;5.40;99.90
24802;DHT22;12898;50.520;12.152;2023-11-21T15:43:46;5.40;99.90
24802;DHT22;12898;50.520;12.152;2023-11-21T15:46:14;5.40;99.90
24802;DHT22;12898;50.520;12.152;2023-11-21T15:48:40;5.30;99.90
24802;DHT22;12898;50.520;12.152;2023-11-21T15:51:11;5.20;99.90
24802;DHT22;12898;50.520;12.152;2023-11-21T15:53:38;5.20;99.90